Time;durP1;ratioP1;P1;durP2;ratioP2;P2;SDS_P1;SDS_P2;PMS_P1;PMS_P2;Temp;Humidity;BMP_temperature;BMP_pressure;BME280_temperature;BME280_humidity;BME280_pressure;Samples;Min_cycle;Max_cycle;Signal;HPM_P1;HPM_P2
2022/03/26 00:00:30;;;;;;;27.73;14.55;;;7.40;92.80;;;;;;4986710;28;20038;-86
2022/03/26 00:02:56;;;;;;;32.78;13.80;;;7.50;93.10;;;;;;4985771;28;20054;-86
2022/03/26 00:05:21;;;;;;;28.45;13.23;;;7.40;93.30;;;;;;4991165;28;20126;-86
2022/03/26 00:07:47;;;;;;;31.10;14.10;;;7.40;93.50;;;;;;4982863;28;20556;-86
2022/03/26 00:10:13;;;;;;;31.35;14.88;;;7.40;93.70;;;;;;4979526;28;20019;-86
2022/03/26 00:12:39;;;;;;;29.83;14.05;;;7.40;93.80;;;;;;4992023;28;20113;-86
2022/03/26 00:15:06;;;;;;;27.42;12.90;;;7.40;94.10;;;;;;4987362;28;20034;-86
2022/03/26 00:17:32;;;;;;;28.65;13.63;;;7.30;94.20;;;;;;4987950;28;20057;-87
2022/03/26 00:19:57;;;;;;;27.90;13.82;;;7.30;94.50;;;;;;4991299;28;20042;-86
2022/03/26 00:22:23;;;;;;;31.85;14.27;;;7.40;94.60;;;;;;4993531;28;20038;-86
2022/03/26 00:24:49;;;;;;;34.20;14.23;;;7.40;94.70;;;;;;4989487;28;20034;-86
2022/03/26 00:27:14;;;;;;;26.85;13.90;;;7.30;94.80;;;;;;4979300;28;20107;-85
2022/03/26 00:29:41;;;;;;;33.67;14.00;;;7.20;94.90;;;;;;4994775;28;20042;-86
2022/03/26 00:32:07;;;;;;;31.00;14.68;;;7.20;95.10;;;;;;4988328;28;20093;-86
2022/03/26 00:34:33;;;;;;;37.88;14.07;;;7.10;95.30;;;;;;5002765;28;20510;-86
2022/03/26 00:37:00;;;;;;;29.95;13.90;;;7.10;95.60;;;;;;4976254;28;20027;-85
2022/03/26 00:39:26;;;;;;;26.08;13.13;;;7.00;95.70;;;;;;4976276;28;20073;-85
2022/03/26 00:41:52;;;;;;;29.95;13.25;;;7.00;96.00;;;;;;4979666;28;20026;-86
2022/03/26 00:44:18;;;;;;;33.47;14.18;;;7.00;96.30;;;;;;4988122;28;20081;-86
2022/03/26 00:46:47;;;;;;;31.52;14.35;;;7.00;96.60;;;;;;4991830;28;20062;-86
2022/03/26 00:49:13;;;;;;;36.50;14.05;;;7.00;96.60;;;;;;4995145;28;20038;-86
2022/03/26 00:51:39;;;;;;;30.02;13.52;;;7.00;96.90;;;;;;4987225;28;20050;-85
2022/03/26 00:54:08;;;;;;;35.20;15.02;;;7.00;97.10;;;;;;4992888;28;20042;-86
2022/03/26 00:56:35;;;;;;;35.50;14.25;;;7.10;97.30;;;;;;4976532;28;20031;-86
2022/03/26 00:59:00;;;;;;;31.73;14.00;;;7.10;97.60;;;;;;5016721;28;20042;-86
2022/03/26 01:01:26;;;;;;;30.33;14.10;;;7.10;97.50;;;;;;4994775;28;20037;-86
2022/03/26 01:03:52;;;;;;;35.97;15.15;;;7.10;97.50;;;;;;4993040;28;20041;-85
2022/03/26 01:06:18;;;;;;;29.92;15.15;;;7.10;97.50;;;;;;4993731;28;20035;-87
2022/03/26 01:08:44;;;;;;;30.95;13.40;;;7.10;97.80;;;;;;4996240;28;20022;-86
2022/03/26 01:11:10;;;;;;;31.48;14.23;;;7.00;97.90;;;;;;4984571;28;20018;-86
2022/03/26 01:13:38;;;;;;;35.40;15.48;;;7.00;98.00;;;;;;4992072;28;20041;-86
2022/03/26 01:16:05;;;;;;;33.15;14.73;;;7.00;98.30;;;;;;4981439;28;20026;-86
2022/03/26 01:18:30;;;;;;;31.80;14.20;;;7.10;98.40;;;;;;4974836;28;20031;-86
2022/03/26 01:20:56;;;;;;;30.85;13.57;;;7.00;98.40;;;;;;4993517;28;20054;-86
2022/03/26 01:23:21;;;;;;;32.33;14.30;;;7.00;99.10;;;;;;4985878;28;20057;-86
2022/03/26 01:25:47;;;;;;;32.03;14.20;;;7.10;98.80;;;;;;4992666;28;20038;-86
2022/03/26 01:28:14;;;;;;;31.90;14.10;;;7.00;98.70;;;;;;4987376;28;20109;-86
2022/03/26 01:30:40;;;;;;;31.50;12.98;;;7.00;98.90;;;;;;4991624;28;20026;-86
2022/03/26 01:33:06;;;;;;;30.55;14.13;;;7.00;98.90;;;;;;4999701;28;20049;-86
2022/03/26 01:35:31;;;;;;;29.45;13.40;;;7.00;98.90;;;;;;4980245;28;20034;-86
2022/03/26 01:38:01;;;;;;;29.30;13.98;;;6.90;99.00;;;;;;4988322;28;20034;-86
2022/03/26 01:40:27;;;;;;;32.63;14.63;;;6.90;99.00;;;;;;4993170;28;20033;-86
2022/03/26 01:42:52;;;;;;;35.47;15.23;;;6.80;99.00;;;;;;4988458;28;20030;-86
2022/03/26 01:45:18;;;;;;;29.20;14.43;;;6.70;99.10;;;;;;4990870;28;20503;-86
2022/03/26 01:47:43;;;;;;;30.92;14.63;;;6.60;99.30;;;;;;4994044;28;20506;-86
2022/03/26 01:50:09;;;;;;;36.35;15.90;;;6.60;99.50;;;;;;4983626;28;20034;-86
2022/03/26 01:52:34;;;;;;;31.58;13.73;;;6.50;99.70;;;;;;4984877;28;20077;-86
2022/03/26 01:55:00;;;;;;;33.25;14.60;;;6.50;99.90;;;;;;4992828;28;20026;-86
2022/03/26 01:57:26;;;;;;;31.65;14.45;;;6.50;99.90;;;;;;4986535;28;20030;-86
2022/03/26 01:59:52;;;;;;;32.17;15.10;;;6.50;99.90;;;;;;4985790;28;20482;-86
2022/03/26 02:02:18;;;;;;;31.42;15.52;;;6.40;99.90;;;;;;4976207;28;20042;-86
2022/03/26 02:04:43;;;;;;;39.13;15.63;;;6.40;99.90;;;;;;4990060;28;20116;-86
2022/03/26 02:07:09;;;;;;;33.08;14.70;;;6.40;99.90;;;;;;4991260;28;20103;-86
2022/03/26 02:09:35;;;;;;;33.45;15.38;;;6.30;99.90;;;;;;4990493;28;20031;-86
2022/03/26 02:12:19;;;;;;;31.45;14.13;;;6.30;99.90;;;;;;4991756;28;20118;-86
2022/03/26 02:14:45;;;;;;;33.47;15.80;;;6.30;99.90;;;;;;4992860;28;20061;-86
2022/03/26 02:17:11;;;;;;;32.00;14.90;;;6.20;99.90;;;;;;4993753;28;20022;-86
2022/03/26 02:19:36;;;;;;;37.03;14.43;;;6.20;99.90;;;;;;4992470;28;20033;-87
2022/03/26 02:22:02;;;;;;;32.10;15.70;;;6.10;99.90;;;;;;4993979;28;21970;-86
2022/03/26 02:24:27;;;;;;;36.65;16.48;;;6.10;99.90;;;;;;4988728;28;20108;-86
2022/03/26 02:26:54;;;;;;;36.67;16.67;;;6.10;99.90;;;;;;4986714;28;20109;-86
2022/03/26 02:29:19;;;;;;;35.80;16.20;;;6.10;99.90;;;;;;5004365;28;20031;-86
2022/03/26 02:31:45;;;;;;;42.40;16.75;;;6.10;99.90;;;;;;4992581;28;20023;-86
2022/03/26 02:34:10;;;;;;;31.15;13.45;;;6.00;99.90;;;;;;4989998;28;20069;-86
2022/03/26 02:36:36;;;;;;;31.23;15.27;;;6.00;99.90;;;;;;4984552;28;20030;-86
2022/03/26 02:39:05;;;;;;;33.22;15.48;;;5.90;99.90;;;;;;4990360;28;20030;-86
2022/03/26 02:41:34;;;;;;;32.00;16.13;;;5.90;99.90;;;;;;5005581;28;20023;-86
2022/03/26 02:43:59;;;;;;;31.83;16.20;;;5.90;99.90;;;;;;4991852;28;20049;-86
2022/03/26 02:46:25;;;;;;;39.90;15.85;;;5.90;99.90;;;;;;4993050;28;20019;-86
2022/03/26 02:48:50;;;;;;;38.03;15.60;;;5.90;99.90;;;;;;4993206;28;20029;-86
2022/03/26 02:51:16;;;;;;;34.10;15.68;;;5.80;99.90;;;;;;4989291;28;20446;-86
2022/03/26 02:53:42;;;;;;;33.03;15.63;;;5.70;99.90;;;;;;4992461;28;20502;-86
2022/03/26 02:56:07;;;;;;;36.60;17.10;;;5.70;99.90;;;;;;4992145;28;20418;-86
2022/03/26 02:58:33;;;;;;;37.05;16.48;;;5.60;99.90;;;;;;4988594;28;20034;-86
2022/03/26 03:00:58;;;;;;;30.67;14.52;;;5.60;99.90;;;;;;4990134;28;20027;-86
2022/03/26 03:03:24;;;;;;;29.73;15.85;;;5.50;99.90;;;;;;4988370;28;20054;-86
2022/03/26 03:05:49;;;;;;;34.85;16.85;;;5.50;99.90;;;;;;4986990;28;20447;-86
2022/03/26 03:08:15;;;;;;;37.20;16.20;;;5.50;99.90;;;;;;4979964;28;20030;-86
2022/03/26 03:10:44;;;;;;;36.22;15.90;;;5.50;99.90;;;;;;4982122;28;20031;-85
2022/03/26 03:13:11;;;;;;;36.40;16.80;;;5.50;99.90;;;;;;4995385;28;20026;-86
2022/03/26 03:15:37;;;;;;;38.28;17.33;;;5.40;99.90;;;;;;4994109;28;20026;-86
2022/03/26 03:18:02;;;;;;;36.65;16.52;;;5.40;99.90;;;;;;4992097;28;20027;-86
2022/03/26 03:20:29;;;;;;;36.20;18.10;;;5.40;99.90;;;;;;4982213;28;20054;-86
2022/03/26 03:22:55;;;;;;;38.60;17.05;;;5.40;99.90;;;;;;4992545;28;20029;-86
2022/03/26 03:25:21;;;;;;;37.00;17.23;;;5.40;99.90;;;;;;4991272;28;20042;-86
2022/03/26 03:27:47;;;;;;;34.38;16.83;;;5.40;99.90;;;;;;4991333;28;20033;-86
2022/03/26 03:30:12;;;;;;;34.53;15.90;;;5.40;99.90;;;;;;4991609;28;20026;-86
2022/03/26 03:32:38;;;;;;;33.60;16.05;;;5.30;99.90;;;;;;4975789;28;20475;-86
2022/03/26 03:35:05;;;;;;;37.28;16.45;;;5.30;99.90;;;;;;4986826;28;20030;-86
2022/03/26 03:37:34;;;;;;;33.47;16.67;;;5.20;99.90;;;;;;4985875;28;20122;-86
2022/03/26 03:40:00;;;;;;;37.78;16.15;;;5.20;99.90;;;;;;4981968;28;20026;-86
2022/03/26 03:42:26;;;;;;;34.63;16.20;;;5.10;99.90;;;;;;4973166;28;20116;-87
2022/03/26 03:44:51;;;;;;;34.30;17.05;;;5.00;99.90;;;;;;4991793;28;20040;-86
2022/03/26 03:47:17;;;;;;;40.85;16.13;;;5.00;99.90;;;;;;4991747;28;20089;-86
2022/03/26 03:49:42;;;;;;;31.38;16.05;;;4.90;99.90;;;;;;4988107;28;20035;-86
2022/03/26 03:52:08;;;;;;;41.38;18.35;;;4.90;99.90;;;;;;4991536;28;20038;-86
2022/03/26 03:54:34;;;;;;;39.35;18.65;;;4.80;99.90;;;;;;4982188;28;20031;-86
2022/03/26 03:56:59;;;;;;;32.75;16.60;;;4.80;99.90;;;;;;5003603;28;20027;-86
2022/03/26 03:59:25;;;;;;;34.67;16.48;;;4.70;99.90;;;;;;4994144;28;20526;-86
2022/03/26 04:01:50;;;;;;;45.25;17.65;;;4.70;99.90;;;;;;4984833;28;20033;-86
2022/03/26 04:04:16;;;;;;;36.80;18.30;;;4.70;99.90;;;;;;4994426;28;20037;-86
2022/03/26 04:06:42;;;;;;;39.65;19.25;;;4.60;99.90;;;;;;4996006;28;20501;-86
2022/03/26 04:09:08;;;;;;;41.72;20.25;;;4.60;99.90;;;;;;4987776;28;20034;-87
2022/03/26 04:11:33;;;;;;;41.17;17.55;;;4.50;99.90;;;;;;4989617;28;20391;-86
2022/03/26 04:13:58;;;;;;;48.30;19.83;;;4.60;99.90;;;;;;4984471;28;20038;-87
2022/03/26 04:16:24;;;;;;;42.25;19.20;;;4.50;99.90;;;;;;4993908;28;20014;-87
2022/03/26 04:18:50;;;;;;;34.10;18.13;;;4.50;99.90;;;;;;4996824;28;20117;-86
2022/03/26 04:21:16;;;;;;;37.50;18.95;;;4.40;99.90;;;;;;4993632;28;20570;-86
2022/03/26 04:23:41;;;;;;;38.90;16.23;;;4.30;99.90;;;;;;4995017;28;20130;-86
2022/03/26 04:26:08;;;;;;;38.45;16.25;;;4.20;99.90;;;;;;4991060;28;20050;-87
2022/03/26 04:28:34;;;;;;;32.10;16.55;;;4.10;99.90;;;;;;4992617;28;20035;-86
2022/03/26 04:30:59;;;;;;;35.05;15.57;;;4.00;99.90;;;;;;4984510;28;20034;-86
2022/03/26 04:33:25;;;;;;;45.92;18.50;;;3.90;99.90;;;;;;4979809;28;20019;-86
2022/03/26 04:35:50;;;;;;;42.08;18.00;;;3.90;99.90;;;;;;4983503;28;20027;-87
2022/03/26 04:38:16;;;;;;;42.30;18.90;;;3.90;99.90;;;;;;4984873;28;21189;-86
2022/03/26 04:40:42;;;;;;;38.17;18.50;;;3.80;99.90;;;;;;5358807;23;20059;-87
2022/03/26 04:43:09;;;;;;;40.17;18.83;;;3.80;99.90;;;;;;4991939;28;20047;-86
2022/03/26 04:45:40;;;;;;;42.17;18.33;;;3.80;99.90;;;;;;4989984;28;20117;-86
2022/03/26 04:48:06;;;;;;;43.17;19.67;;;3.70;99.90;;;;;;4987011;28;20029;-86
2022/03/26 04:50:31;;;;;;;44.92;20.48;;;3.70;99.90;;;;;;4994519;28;20027;-86
2022/03/26 04:52:58;;;;;;;45.03;19.20;;;3.60;99.90;;;;;;4977443;28;20070;-86
2022/03/26 04:55:26;;;;;;;44.85;18.98;;;3.60;99.90;;;;;;4993748;28;20117;-87
2022/03/26 04:57:54;;;;;;;37.72;18.65;;;3.60;99.90;;;;;;4992629;28;20030;-86
2022/03/26 05:00:20;;;;;;;41.85;18.60;;;3.60;99.90;;;;;;4983982;28;20030;-86
2022/03/26 05:02:46;;;;;;;44.17;19.85;;;3.60;99.90;;;;;;4989661;28;20026;-86
2022/03/26 05:05:13;;;;;;;44.97;20.95;;;3.60;99.90;;;;;;4992147;28;20061;-86
2022/03/26 05:07:45;;;;;;;39.33;19.58;;;3.60;99.90;;;;;;4991830;28;20030;-86
2022/03/26 05:10:14;;;;;;;45.17;20.88;;;3.60;99.90;;;;;;4994338;28;20026;-86
2022/03/26 05:12:43;;;;;;;46.30;19.60;;;3.60;99.90;;;;;;4977999;28;20102;-86
2022/03/26 05:15:09;;;;;;;45.88;20.35;;;3.70;99.90;;;;;;4993412;28;20034;-86
2022/03/26 05:17:37;;;;;;;42.80;18.98;;;3.70;99.90;;;;;;4995631;28;20045;-86
2022/03/26 05:20:04;;;;;;;47.03;20.33;;;3.70;99.90;;;;;;4993826;28;20030;-86
2022/03/26 05:22:30;;;;;;;41.58;18.98;;;3.60;99.90;;;;;;4993507;28;20031;-86
2022/03/26 05:24:55;;;;;;;42.65;19.70;;;3.60;99.90;;;;;;4990689;28;20045;-86
2022/03/26 05:27:21;;;;;;;41.95;20.13;;;3.60;99.90;;;;;;4959666;28;20074;-85
2022/03/26 05:29:48;;;;;;;49.75;21.00;;;3.70;99.90;;;;;;4987539;28;20128;-86
2022/03/26 05:32:14;;;;;;;46.83;19.15;;;3.70;99.90;;;;;;4992806;28;20068;-86
2022/03/26 05:34:40;;;;;;;44.97;20.85;;;3.70;99.90;;;;;;4990266;28;20027;-87
2022/03/26 05:37:05;;;;;;;46.30;20.23;;;3.60;99.90;;;;;;4995469;28;20026;-87
2022/03/26 05:39:33;;;;;;;49.05;20.25;;;3.60;99.90;;;;;;4992271;28;20172;-88
2022/03/26 05:42:00;;;;;;;46.03;19.80;;;3.50;99.90;;;;;;4990846;28;20529;-86
2022/03/26 05:44:25;;;;;;;48.67;20.75;;;3.50;99.90;;;;;;4984558;28;20039;-86
2022/03/26 05:46:51;;;;;;;44.97;20.20;;;3.50;99.90;;;;;;4982556;28;20034;-87
2022/03/26 05:49:19;;;;;;;46.50;20.00;;;3.50;99.90;;;;;;4989108;28;20038;-87
2022/03/26 05:51:44;;;;;;;46.25;21.10;;;3.60;99.90;;;;;;4977712;28;20474;-85
2022/03/26 05:54:10;;;;;;;49.17;21.40;;;3.70;99.90;;;;;;4989717;28;20038;-85
2022/03/26 05:56:36;;;;;;;50.22;20.48;;;3.80;99.90;;;;;;4991688;28;20106;-86
2022/03/26 05:59:10;;;;;;;46.60;21.58;;;3.90;99.90;;;;;;4984817;28;20486;-86
2022/03/26 06:01:36;;;;;;;46.78;18.95;;;4.00;99.90;;;;;;4984543;28;20105;-87
2022/03/26 06:04:08;;;;;;;47.75;21.02;;;4.00;99.90;;;;;;4985831;28;20070;-85
2022/03/26 06:06:33;;;;;;;51.50;20.77;;;4.10;99.90;;;;;;4987104;28;20026;-85
2022/03/26 06:08:59;;;;;;;44.47;20.90;;;4.10;99.90;;;;;;4980009;28;20045;-85
2022/03/26 06:11:25;;;;;;;46.58;20.35;;;4.30;99.90;;;;;;4977705;28;20498;-85
2022/03/26 06:13:53;;;;;;;50.47;21.40;;;4.30;99.90;;;;;;4991630;28;20030;-85
2022/03/26 06:16:19;;;;;;;53.28;20.90;;;4.30;99.90;;;;;;4987356;28;20061;-85
2022/03/26 06:18:44;;;;;;;45.75;21.35;;;4.30;99.90;;;;;;4989615;28;20513;-85
2022/03/26 06:21:12;;;;;;;46.97;21.83;;;4.30;99.90;;;;;;4988770;28;20035;-85
2022/03/26 06:23:40;;;;;;;41.33;19.75;;;4.40;99.90;;;;;;4990801;28;20096;-85
2022/03/26 06:26:08;;;;;;;43.60;19.75;;;4.30;99.90;;;;;;4989203;28;20113;-85
2022/03/26 06:28:35;;;;;;;46.42;21.33;;;4.40;99.90;;;;;;4987869;28;20028;-85
2022/03/26 06:31:01;;;;;;;47.70;20.52;;;4.40;99.90;;;;;;4991592;28;20405;-86
2022/03/26 06:33:26;;;;;;;43.70;20.13;;;4.40;99.90;;;;;;4987777;28;20030;-86
2022/03/26 06:35:55;;;;;;;49.42;21.85;;;4.40;99.90;;;;;;4990855;28;20105;-86
2022/03/26 06:38:21;;;;;;;41.03;20.42;;;4.50;99.90;;;;;;4988426;28;20030;-85
2022/03/26 06:40:50;;;;;;;49.38;22.23;;;4.50;99.90;;;;;;4980391;28;20045;-86
2022/03/26 06:43:17;;;;;;;51.97;22.52;;;4.60;99.90;;;;;;4991960;28;20129;-86
2022/03/26 06:45:43;;;;;;;49.83;22.42;;;4.60;99.90;;;;;;4992094;28;20042;-86
2022/03/26 06:48:09;;;;;;;51.35;22.27;;;4.80;99.90;;;;;;4991721;28;20032;-86
2022/03/26 06:50:37;;;;;;;53.50;23.65;;;4.90;99.90;;;;;;4986244;28;20034;-85
2022/03/26 06:53:03;;;;;;;50.15;22.95;;;5.10;99.90;;;;;;4988751;28;20038;-86
2022/03/26 06:55:28;;;;;;;54.67;23.75;;;5.30;99.90;;;;;;4988623;28;20048;-85
2022/03/26 06:57:56;;;;;;;55.63;25.15;;;5.60;99.90;;;;;;4985973;28;20029;-85
2022/03/26 07:00:22;;;;;;;57.33;24.73;;;5.80;99.90;;;;;;4992866;28;20034;-86
2022/03/26 07:02:53;;;;;;;47.30;23.63;;;6.00;99.90;;;;;;4993758;28;20037;-86
2022/03/26 07:05:21;;;;;;;51.20;24.58;;;6.20;99.90;;;;;;4982857;28;20104;-86
2022/03/26 07:07:47;;;;;;;58.33;26.10;;;6.40;99.90;;;;;;4979734;28;20027;-86
2022/03/26 07:10:20;;;;;;;52.38;25.10;;;6.50;99.90;;;;;;4952936;28;20041;-86
2022/03/26 07:12:46;;;;;;;52.40;25.98;;;6.70;99.90;;;;;;4992515;28;20375;-85
2022/03/26 07:15:12;;;;;;;54.50;24.52;;;6.90;99.90;;;;;;4991812;28;20463;-86
2022/03/26 07:17:45;;;;;;;58.08;26.92;;;7.00;99.90;;;;;;4984359;28;20113;-86
2022/03/26 07:20:14;;;;;;;55.33;25.73;;;7.10;99.90;;;;;;4989805;28;20053;-86
2022/03/26 07:22:44;;;;;;;58.47;27.08;;;7.30;99.90;;;;;;4987072;28;20042;-86
2022/03/26 07:25:17;;;;;;;61.30;26.83;;;7.40;99.90;;;;;;4991883;28;20486;-86
2022/03/26 07:27:43;;;;;;;67.28;30.65;;;7.50;99.90;;;;;;4974238;28;20060;-86
2022/03/26 07:30:13;;;;;;;56.33;28.63;;;7.70;99.90;;;;;;4985448;28;20030;-86
2022/03/26 07:32:44;;;;;;;57.92;30.17;;;7.80;99.90;;;;;;4992624;28;20031;-86
2022/03/26 07:35:13;;;;;;;65.35;29.83;;;8.00;99.90;;;;;;4995552;28;20050;-86
2022/03/26 07:37:43;;;;;;;63.40;30.33;;;8.10;99.90;;;;;;4997812;28;20557;-86
2022/03/26 07:40:12;;;;;;;66.45;29.63;;;8.20;99.90;;;;;;4995603;28;20470;-86
2022/03/26 07:42:38;;;;;;;63.13;32.10;;;8.30;99.90;;;;;;4985161;28;20577;-86
2022/03/26 07:45:04;;;;;;;62.92;29.33;;;8.50;99.90;;;;;;4978579;28;20070;-86
2022/03/26 07:47:30;;;;;;;63.20;31.08;;;8.60;99.90;;;;;;4996103;28;20084;-86
2022/03/26 07:49:56;;;;;;;61.90;29.15;;;8.60;99.90;;;;;;4981561;28;20508;-86
2022/03/26 07:52:21;;;;;;;61.65;30.70;;;8.80;99.90;;;;;;4996866;28;20038;-86
2022/03/26 07:54:47;;;;;;;63.15;30.67;;;8.90;99.90;;;;;;4990952;28;20041;-85
2022/03/26 07:57:19;;;;;;;59.72;29.80;;;9.00;99.90;;;;;;4996659;28;20026;-86
2022/03/26 07:59:44;;;;;;;59.30;31.30;;;9.10;99.90;;;;;;4993362;28;20026;-86
2022/03/26 08:02:12;;;;;;;67.53;33.20;;;9.20;99.90;;;;;;4990215;28;20057;-85
2022/03/26 08:04:38;;;;;;;59.47;29.35;;;9.40;99.90;;;;;;4984346;28;20094;-86
2022/03/26 08:07:07;;;;;;;58.15;29.30;;;9.50;99.90;;;;;;4990953;28;20134;-86
2022/03/26 08:09:35;;;;;;;62.95;31.35;;;9.60;99.90;;;;;;4992433;28;20039;-86
2022/03/26 08:12:01;;;;;;;55.97;29.60;;;9.70;99.90;;;;;;4995520;28;20108;-86
2022/03/26 08:14:28;;;;;;;56.78;29.13;;;9.90;99.90;;;;;;4992372;28;20025;-85
2022/03/26 08:16:55;;;;;;;56.35;30.33;;;9.90;99.90;;;;;;4993382;28;20476;-86
2022/03/26 08:19:21;;;;;;;59.60;29.35;;;10.00;99.90;;;;;;4995209;28;20030;-86
2022/03/26 08:21:48;;;;;;;53.47;28.45;;;10.10;99.90;;;;;;4981537;28;20030;-86
2022/03/26 08:24:13;;;;;;;69.72;31.77;;;10.20;99.90;;;;;;4995868;28;20042;-86
2022/03/26 08:26:39;;;;;;;59.30;29.95;;;10.40;99.90;;;;;;4993915;28;20030;-86
2022/03/26 08:29:05;;;;;;;53.58;27.52;;;10.60;99.90;;;;;;4986610;28;20080;-86
2022/03/26 08:31:31;;;;;;;57.75;27.80;;;10.80;99.90;;;;;;4990101;28;20026;-86
2022/03/26 08:34:00;;;;;;;52.55;27.23;;;11.00;99.90;;;;;;4993200;28;20133;-86
2022/03/26 08:36:30;;;;;;;43.53;23.60;;;11.10;99.90;;;;;;4983413;28;20486;-84
2022/03/26 08:38:56;;;;;;;52.22;25.17;;;11.30;99.90;;;;;;4990905;28;20396;-84
2022/03/26 08:41:23;;;;;;;56.20;28.65;;;11.40;99.90;;;;;;4990637;28;20038;-85
2022/03/26 08:43:51;;;;;;;48.53;25.33;;;11.60;99.20;;;;;;4973937;28;20046;-84
2022/03/26 08:46:23;;;;;;;53.85;26.48;;;11.80;98.60;;;;;;4989486;28;20030;-85
2022/03/26 08:48:53;;;;;;;52.28;26.75;;;11.90;98.10;;;;;;4991235;28;20034;-84
2022/03/26 08:51:19;;;;;;;50.22;26.77;;;12.00;97.50;;;;;;4983757;28;20030;-85
2022/03/26 08:53:44;;;;;;;45.50;23.40;;;12.00;97.30;;;;;;4982318;28;20382;-85
2022/03/26 08:56:10;;;;;;;53.65;26.70;;;12.10;97.20;;;;;;4982169;28;20178;-85
2022/03/26 08:58:38;;;;;;;51.97;24.40;;;12.20;96.40;;;;;;4974152;28;20045;-87
2022/03/26 09:01:07;;;;;;;57.97;26.98;;;12.40;96.20;;;;;;4974788;28;20019;-86
2022/03/26 09:03:37;;;;;;;48.92;25.98;;;12.50;95.80;;;;;;4980736;28;20035;-84
2022/03/26 09:06:03;;;;;;;44.75;25.25;;;12.60;95.40;;;;;;4974939;28;20046;-86
2022/03/26 09:08:39;;;;;;;51.28;24.92;;;12.80;95.20;;;;;;4989511;28;20026;-87
2022/03/26 09:11:07;;;;;;;45.78;24.85;;;12.90;95.10;;;;;;4992528;28;20028;-87
2022/03/26 09:13:33;;;;;;;54.08;26.52;;;13.00;94.20;;;;;;4992414;28;20129;-86
2022/03/26 09:16:02;;;;;;;55.33;26.63;;;13.10;94.10;;;;;;4986551;28;20018;-86
2022/03/26 09:18:28;;;;;;;47.60;25.13;;;13.10;93.00;;;;;;4986992;28;20030;-87
2022/03/26 09:21:03;;;;;;;44.45;24.42;;;13.20;92.80;;;;;;4992568;28;20359;-85
2022/03/26 09:23:32;;;;;;;47.85;26.10;;;13.30;92.80;;;;;;4988127;28;20158;-87
2022/03/26 09:25:59;;;;;;;47.22;24.27;;;13.40;92.40;;;;;;4994261;28;20062;-85
2022/03/26 09:28:28;;;;;;;45.05;23.83;;;13.50;92.00;;;;;;4981875;28;20026;-86
2022/03/26 09:30:53;;;;;;;47.05;23.73;;;13.50;91.80;;;;;;4990846;28;20026;-85
2022/03/26 09:33:24;;;;;;;43.47;23.42;;;13.60;91.50;;;;;;4994223;28;20038;-86
2022/03/26 09:35:50;;;;;;;43.80;23.48;;;13.70;91.20;;;;;;4986211;28;20100;-86
2022/03/26 09:38:16;;;;;;;42.47;22.10;;;13.70;91.40;;;;;;4992937;28;20029;-86
2022/03/26 09:40:43;;;;;;;41.53;21.10;;;13.80;91.30;;;;;;4991606;28;20038;-86
2022/03/26 09:43:12;;;;;;;37.00;20.63;;;14.00;91.20;;;;;;4989323;28;20061;-86
2022/03/26 09:45:38;;;;;;;38.28;19.38;;;14.10;91.00;;;;;;4980225;28;20030;-86
2022/03/26 09:48:05;;;;;;;36.50;19.15;;;14.30;90.80;;;;;;4990889;28;20030;-87
2022/03/26 09:50:31;;;;;;;35.50;18.92;;;14.40;90.00;;;;;;4988513;28;20054;-87
2022/03/26 09:52:56;;;;;;;38.10;19.05;;;14.50;90.00;;;;;;4986295;28;20105;-86
2022/03/26 09:55:25;;;;;;;36.00;19.38;;;14.70;88.70;;;;;;4986838;28;20040;-86
2022/03/26 09:57:52;;;;;;;36.92;19.63;;;14.70;87.70;;;;;;4985590;28;20125;-87
2022/03/26 10:00:18;;;;;;;39.20;19.08;;;14.70;86.70;;;;;;4990330;28;20113;-87
2022/03/26 10:02:43;;;;;;;32.15;16.48;;;14.80;86.70;;;;;;4990193;28;20038;-87
2022/03/26 10:05:12;;;;;;;31.77;16.05;;;14.80;86.20;;;;;;4981297;28;20034;-87
2022/03/26 10:07:38;;;;;;;27.40;15.35;;;14.90;86.00;;;;;;4983867;28;20364;-87
2022/03/26 10:10:04;;;;;;;33.75;16.67;;;15.00;85.70;;;;;;4991160;28;20033;-87
2022/03/26 10:12:31;;;;;;;30.50;17.20;;;15.00;84.30;;;;;;4974897;28;20070;-87
2022/03/26 10:14:58;;;;;;;27.63;16.77;;;15.00;83.80;;;;;;4991433;28;20090;-87
2022/03/26 10:17:33;;;;;;;30.20;15.85;;;15.00;84.10;;;;;;4989267;28;20106;-87
2022/03/26 10:20:13;;;;;;;32.00;16.38;;;15.00;84.20;;;;;;4989625;28;20058;-87
2022/03/26 10:22:40;;;;;;;33.55;17.17;;;15.10;84.40;;;;;;4990724;28;20030;-87
2022/03/26 10:25:06;;;;;;;32.83;18.42;;;15.20;84.60;;;;;;4987010;28;20038;-87
2022/03/26 10:27:42;;;;;;;33.75;17.85;;;15.30;83.30;;;;;;4990261;28;20031;-86
2022/03/26 10:30:08;;;;;;;32.95;18.05;;;15.30;83.40;;;;;;4998901;28;20123;-86
2022/03/26 10:32:39;;;;;;;33.17;18.30;;;15.40;82.90;;;;;;4980690;28;20023;-86
2022/03/26 10:35:13;;;;;;;30.50;17.25;;;15.50;82.30;;;;;;4980820;28;20077;-86
2022/03/26 10:37:46;;;;;;;35.30;18.52;;;15.60;82.50;;;;;;4990824;28;20027;-86
2022/03/26 10:40:19;;;;;;;34.72;18.10;;;15.70;81.20;;;;;;4984312;28;20037;-86
2022/03/26 10:42:44;;;;;;;34.58;17.85;;;15.80;81.00;;;;;;4990738;28;20065;-86
2022/03/26 10:45:14;;;;;;;32.75;18.42;;;15.80;80.90;;;;;;4987913;28;20482;-86
2022/03/26 10:47:40;;;;;;;34.13;17.27;;;15.90;80.70;;;;;;4981857;28;20536;-85
2022/03/26 10:50:06;;;;;;;36.38;18.15;;;15.90;80.10;;;;;;4977355;28;20106;-86
2022/03/26 10:52:31;;;;;;;27.88;16.13;;;15.90;79.50;;;;;;4977645;28;20478;-87
2022/03/26 10:55:00;;;;;;;29.92;17.20;;;16.00;80.10;;;;;;4990904;28;20031;-85
2022/03/26 10:57:29;;;;;;;29.77;16.55;;;16.10;79.80;;;;;;4988446;28;20023;-86
2022/03/26 10:59:58;;;;;;;28.40;16.63;;;16.20;78.70;;;;;;4981899;28;20542;-87
2022/03/26 11:02:24;;;;;;;27.88;14.52;;;16.20;78.60;;;;;;4974932;28;20045;-86
2022/03/26 11:04:52;;;;;;;27.35;15.48;;;16.30;77.80;;;;;;4987581;28;20479;-86
2022/03/26 11:07:17;;;;;;;25.08;14.57;;;16.30;77.90;;;;;;4987121;28;20530;-87
2022/03/26 11:09:45;;;;;;;27.13;14.90;;;16.40;78.40;;;;;;4963583;28;20030;-86
2022/03/26 11:12:12;;;;;;;24.17;15.13;;;16.50;77.60;;;;;;4990776;28;20031;-87
2022/03/26 11:14:48;;;;;;;26.65;15.57;;;16.60;77.10;;;;;;4986737;28;20505;-86
2022/03/26 11:17:58;;;;;;;24.95;15.45;;;16.70;76.30;;;;;;4974075;28;20038;-85
2022/03/26 11:20:56;;;;;;;26.42;15.57;;;16.70;75.90;;;;;;4974200;28;20137;-86
2022/03/26 11:23:36;;;;;;;26.83;15.13;;;16.70;75.50;;;;;;4982049;28;20030;-86
2022/03/26 11:26:29;;;;;;;29.95;16.35;;;16.70;75.50;;;;;;4984775;28;20031;-87
2022/03/26 11:29:16;;;;;;;23.75;14.63;;;16.80;75.60;;;;;;4991627;28;20026;-86
2022/03/26 11:31:56;;;;;;;23.63;13.48;;;16.80;75.20;;;;;;4988542;28;20026;-87
2022/03/26 11:34:22;;;;;;;25.40;14.27;;;16.90;75.30;;;;;;4987812;28;20823;-87
2022/03/26 11:36:51;;;;;;;23.85;13.90;;;17.00;74.60;;;;;;4992405;28;20042;-87
2022/03/26 11:39:19;;;;;;;20.50;13.30;;;17.10;73.40;;;;;;4966112;28;20035;-87
2022/03/26 11:41:45;;;;;;;21.92;12.25;;;17.20;73.80;;;;;;4973415;28;20050;-87
2022/03/26 11:44:12;;;;;;;18.58;12.07;;;17.30;73.20;;;;;;4979138;28;20073;-87
2022/03/26 11:52:36;;;;;;;16.00;10.30;;;17.40;71.50;;;;;;4978922;28;20073;-88
2022/03/26 11:55:25;;;;;;;17.15;9.55;;;17.40;71.40;;;;;;4976015;28;20027;-87
2022/03/26 11:58:13;;;;;;;13.70;9.45;;;17.50;71.60;;;;;;4981480;28;20034;-87
2022/03/26 12:01:01;;;;;;;15.95;10.90;;;17.60;71.70;;;;;;4985711;28;20109;-87
2022/03/26 12:03:40;;;;;;;16.50;9.32;;;17.60;70.90;;;;;;4978222;28;20041;-88
2022/03/26 12:09:01;;;;;;;18.88;9.80;;;17.70;70.80;;;;;;4993385;28;20076;-87
2022/03/26 12:11:35;;;;;;;14.23;8.85;;;17.70;69.90;;;;;;4982302;28;20038;-86
2022/03/26 12:14:03;;;;;;;14.55;8.23;;;17.80;70.20;;;;;;4977583;28;20034;-85
2022/03/26 12:16:53;;;;;;;15.15;8.88;;;17.80;70.00;;;;;;4992258;28;20454;-86
2022/03/26 12:19:46;;;;;;;12.43;7.88;;;17.90;69.80;;;;;;4984941;28;20429;-86
2022/03/26 12:22:28;;;;;;;10.55;6.85;;;17.90;68.10;;;;;;4988552;28;20393;-86
2022/03/26 12:25:02;;;;;;;9.30;6.50;;;17.90;68.50;;;;;;4988489;28;20056;-83
2022/03/26 12:27:37;;;;;;;13.13;6.97;;;18.00;68.20;;;;;;4988928;28;20026;-83
2022/03/26 12:30:03;;;;;;;10.52;6.55;;;18.10;67.60;;;;;;4992673;28;20394;-84
2022/03/26 12:32:32;;;;;;;9.65;6.28;;;18.20;67.90;;;;;;4992874;28;20034;-84
2022/03/26 12:35:05;;;;;;;10.50;6.97;;;18.20;67.10;;;;;;4992816;28;20022;-85
2022/03/26 12:37:34;;;;;;;11.10;6.88;;;18.30;67.10;;;;;;4983445;28;20030;-85
2022/03/26 12:40:00;;;;;;;13.15;7.78;;;18.40;65.80;;;;;;4981671;28;20027;-85
2022/03/26 12:42:29;;;;;;;16.10;8.25;;;18.40;64.10;;;;;;4969170;28;20046;-85
2022/03/26 12:44:55;;;;;;;14.05;7.22;;;18.30;63.80;;;;;;4985701;28;20049;-85